Time;durP1;ratioP1;P1;durP2;ratioP2;P2;SDS_P1;SDS_P2;PMS_P1;PMS_P2;Temp;Humidity;BMP_temperature;BMP_pressure;BME280_temperature;BME280_humidity;BME280_pressure;Samples;Min_cycle;Max_cycle;Signal;HPM_P1;HPM_P2
2022/04/27 00:01:02;;;;;;;7.17;5.93;;;11.10;99.90;;;;;;7384514;19;20141;-78
2022/04/27 00:03:28;;;;;;;6.43;5.20;;;11.20;99.90;;;;;;7384967;19;20488;-75
2022/04/27 00:05:54;;;;;;;7.97;6.07;;;11.20;99.90;;;;;;7385378;19;20123;-74
2022/04/27 00:08:20;;;;;;;6.73;5.43;;;11.20;99.90;;;;;;7385937;19;20151;-75
2022/04/27 00:10:45;;;;;;;7.57;5.33;;;11.20;99.90;;;;;;7384675;19;20127;-75
2022/04/27 00:13:15;;;;;;;7.73;5.93;;;11.10;99.90;;;;;;7386117;19;20618;-73
2022/04/27 00:15:41;;;;;;;6.60;5.00;;;11.10;99.90;;;;;;7383608;19;20189;-78
2022/04/27 00:18:07;;;;;;;6.33;5.50;;;11.00;99.90;;;;;;7387497;19;20578;-76
2022/04/27 00:20:33;;;;;;;7.53;5.50;;;11.00;99.90;;;;;;7382844;19;20147;-74
2022/04/27 00:22:59;;;;;;;7.03;6.03;;;10.90;99.90;;;;;;7385397;19;20412;-74
2022/04/27 00:25:25;;;;;;;9.73;5.97;;;10.90;99.90;;;;;;7385920;19;20123;-77
2022/04/27 00:27:51;;;;;;;7.00;5.67;;;10.80;99.90;;;;;;7385814;19;20130;-79
2022/04/27 00:30:17;;;;;;;7.23;5.57;;;10.80;99.90;;;;;;7383987;19;20142;-78
2022/04/27 00:32:42;;;;;;;6.83;5.73;;;10.70;99.90;;;;;;7393602;19;20613;-74
2022/04/27 00:35:08;;;;;;;8.30;6.20;;;10.70;99.90;;;;;;7385290;19;20230;-74
2022/04/27 00:37:34;;;;;;;8.70;6.57;;;10.70;99.90;;;;;;7382903;19;20119;-76
2022/04/27 00:40:00;;;;;;;8.20;6.83;;;10.80;99.90;;;;;;7385414;19;20154;-77
2022/04/27 00:42:26;;;;;;;10.00;7.40;;;10.90;99.90;;;;;;7381570;19;20131;-74
2022/04/27 00:44:52;;;;;;;9.97;7.00;;;11.00;99.90;;;;;;7382488;19;20217;-78
2022/04/27 00:47:21;;;;;;;9.33;7.30;;;10.80;99.90;;;;;;7382838;19;20131;-75
2022/04/27 00:49:49;;;;;;;8.97;7.07;;;10.90;99.90;;;;;;7383269;19;20155;-73
2022/04/27 00:52:16;;;;;;;10.37;8.10;;;11.00;99.90;;;;;;7384578;19;20198;-73
2022/04/27 00:54:44;;;;;;;9.83;7.50;;;11.10;99.90;;;;;;7387878;19;20923;-74
2022/04/27 00:57:10;;;;;;;9.40;7.07;;;11.00;99.90;;;;;;7385785;19;20177;-76
2022/04/27 00:59:37;;;;;;;10.70;8.37;;;11.10;99.90;;;;;;7384424;19;20150;-75
2022/04/27 01:02:06;;;;;;;10.07;7.20;;;11.10;99.90;;;;;;7385510;19;20533;-75
2022/04/27 01:04:36;;;;;;;11.30;8.40;;;11.00;99.90;;;;;;7385716;19;21023;-74
2022/04/27 01:07:03;;;;;;;11.93;8.80;;;11.00;99.90;;;;;;7382294;19;20720;-78
2022/04/27 01:09:30;;;;;;;10.63;8.70;;;11.20;99.90;;;;;;7385732;19;20157;-77
2022/04/27 01:11:57;;;;;;;12.47;8.80;;;11.20;99.90;;;;;;7384469;19;20255;-78
2022/04/27 01:14:22;;;;;;;11.00;8.07;;;11.20;99.90;;;;;;7384695;19;20425;-79
2022/04/27 01:16:56;;;;;;;13.10;9.13;;;11.20;99.90;;;;;;7382930;19;20139;-77
2022/04/27 01:19:24;;;;;;;11.77;8.57;;;11.20;99.90;;;;;;7385989;19;20158;-77
2022/04/27 01:21:50;;;;;;;12.83;9.13;;;11.20;99.90;;;;;;7386116;19;20147;-78
2022/04/27 01:24:22;;;;;;;11.17;8.57;;;11.00;99.90;;;;;;7389771;19;20157;-74
2022/04/27 01:26:49;;;;;;;11.60;9.03;;;11.00;99.90;;;;;;7384721;19;20143;-73
2022/04/27 01:29:17;;;;;;;11.67;8.87;;;11.10;99.90;;;;;;7383336;19;20170;-75
2022/04/27 01:31:43;;;;;;;12.63;9.40;;;11.30;99.90;;;;;;7385461;19;20151;-76
2022/04/27 01:34:09;;;;;;;11.63;8.73;;;11.20;99.90;;;;;;7383484;19;20130;-73
2022/04/27 01:36:36;;;;;;;11.87;9.03;;;11.10;99.90;;;;;;7383610;19;20604;-75
2022/04/27 01:39:03;;;;;;;13.10;9.23;;;11.10;99.90;;;;;;7383971;19;20130;-75
2022/04/27 01:41:29;;;;;;;12.93;8.83;;;11.10;99.90;;;;;;7386023;19;20135;-75
2022/04/27 01:43:57;;;;;;;12.77;9.80;;;11.20;99.90;;;;;;7385931;19;20886;-77
2022/04/27 01:46:24;;;;;;;13.90;9.57;;;11.20;99.90;;;;;;7384915;19;20155;-77
2022/04/27 01:48:52;;;;;;;12.03;9.17;;;11.20;99.90;;;;;;7385942;19;20139;-76
2022/04/27 01:51:19;;;;;;;13.37;9.30;;;11.20;99.90;;;;;;7384104;19;20160;-80
2022/04/27 01:56:31;;;;;;;14.20;9.77;;;11.30;99.90;;;;;;7388028;19;20795;-76
2022/04/27 01:58:57;;;;;;;15.27;10.80;;;11.30;99.90;;;;;;7391218;19;20147;-78
2022/04/27 02:01:25;;;;;;;13.90;9.77;;;11.30;99.90;;;;;;7392395;19;20149;-78
2022/04/27 02:03:51;;;;;;;14.33;10.53;;;11.30;99.90;;;;;;7390093;19;20139;-76
2022/04/27 02:06:19;;;;;;;15.60;10.73;;;10.90;99.90;;;;;;7389523;19;20567;-76
2022/04/27 02:08:45;;;;;;;14.73;10.17;;;11.00;99.90;;;;;;7391225;19;20151;-75
2022/04/27 02:11:11;;;;;;;16.30;10.97;;;11.00;99.90;;;;;;7395662;19;20199;-78
2022/04/27 02:13:37;;;;;;;15.20;10.90;;;11.10;99.90;;;;;;7397375;19;20126;-76
2022/04/27 02:16:04;;;;;;;15.30;10.47;;;11.20;99.90;;;;;;7391431;19;20854;-78
2022/04/27 02:18:31;;;;;;;15.13;11.27;;;11.20;99.90;;;;;;7390528;19;20142;-75
2022/04/27 02:20:57;;;;;;;15.03;10.90;;;11.30;99.90;;;;;;7388154;19;20638;-75
2022/04/27 02:23:23;;;;;;;17.67;11.57;;;11.30;99.90;;;;;;7389668;19;20222;-78
2022/04/27 02:25:49;;;;;;;15.33;11.73;;;11.40;99.90;;;;;;7389729;19;20212;-77
2022/04/27 02:28:15;;;;;;;18.20;11.40;;;11.30;99.90;;;;;;7389940;19;20610;-76
2022/04/27 02:30:41;;;;;;;14.40;10.70;;;11.40;99.90;;;;;;7389551;19;20556;-77
2022/04/27 02:33:06;;;;;;;15.80;11.30;;;11.20;99.90;;;;;;7391324;19;20235;-76
2022/04/27 02:35:32;;;;;;;17.63;11.43;;;11.30;99.90;;;;;;7391070;19;20175;-75
2022/04/27 02:37:58;;;;;;;14.33;10.47;;;11.20;99.90;;;;;;7391888;19;20134;-76
2022/04/27 02:40:24;;;;;;;15.23;10.87;;;11.20;99.90;;;;;;7391136;19;20139;-75
2022/04/27 02:42:52;;;;;;;15.53;10.67;;;11.30;99.90;;;;;;7386059;19;20146;-76
2022/04/27 02:45:18;;;;;;;14.37;10.03;;;11.20;99.90;;;;;;7389730;19;20143;-76
2022/04/27 02:47:44;;;;;;;16.97;11.47;;;11.20;99.90;;;;;;7389942;19;20586;-78
2022/04/27 02:52:54;;;;;;;14.00;10.70;;;11.20;99.90;;;;;;7388633;19;20143;-77
2022/04/27 02:55:22;;;;;;;14.33;9.97;;;11.10;99.90;;;;;;7389213;19;20649;-77
2022/04/27 02:57:48;;;;;;;13.43;10.10;;;11.20;99.90;;;;;;7391424;19;20131;-75
2022/04/27 03:00:14;;;;;;;13.17;10.57;;;11.20;99.90;;;;;;7396345;19;20137;-75
2022/04/27 03:02:40;;;;;;;17.00;11.17;;;11.10;99.90;;;;;;7388175;19;20527;-75
2022/04/27 03:05:06;;;;;;;15.20;10.27;;;11.10;99.90;;;;;;7389611;19;20221;-77
2022/04/27 03:07:32;;;;;;;14.50;10.67;;;11.20;99.90;;;;;;7386395;19;20174;-74
2022/04/27 03:09:58;;;;;;;13.67;9.23;;;11.20;99.90;;;;;;7388228;19;20130;-78
2022/04/27 03:12:24;;;;;;;13.83;9.60;;;11.30;99.90;;;;;;7387840;19;20610;-76
2022/04/27 03:14:49;;;;;;;13.17;9.20;;;11.20;99.90;;;;;;7390952;19;20161;-75
2022/04/27 03:17:15;;;;;;;14.30;10.23;;;11.10;99.90;;;;;;7386993;19;20119;-76
2022/04/27 03:19:41;;;;;;;14.17;9.33;;;11.20;99.90;;;;;;7389002;19;20147;-78
2022/04/27 03:22:08;;;;;;;15.03;10.10;;;11.20;99.90;;;;;;7389730;19;20654;-78
2022/04/27 03:24:34;;;;;;;12.57;9.17;;;11.10;99.90;;;;;;7388846;19;20875;-75
2022/04/27 03:27:00;;;;;;;12.13;9.33;;;11.20;99.90;;;;;;7387245;19;20756;-79
2022/04/27 03:29:26;;;;;;;14.90;9.90;;;11.10;99.90;;;;;;7386303;19;20139;-75
2022/04/27 03:31:52;;;;;;;12.53;8.67;;;11.20;99.90;;;;;;7391608;19;20273;-77
2022/04/27 03:34:18;;;;;;;12.07;9.00;;;11.20;99.90;;;;;;7387708;19;20575;-77
2022/04/27 03:36:43;;;;;;;13.43;9.60;;;11.20;99.90;;;;;;7386929;19;20162;-75
2022/04/27 03:39:09;;;;;;;14.23;10.13;;;11.20;99.90;;;;;;7387683;19;20852;-78
2022/04/27 03:41:35;;;;;;;11.97;8.53;;;11.20;99.90;;;;;;7390610;19;20131;-78
2022/04/27 03:44:01;;;;;;;13.37;8.90;;;11.30;99.90;;;;;;7389664;19;20582;-76
2022/04/27 03:46:27;;;;;;;12.63;8.60;;;11.30;99.90;;;;;;7386232;19;20119;-78
2022/04/27 03:48:52;;;;;;;12.10;8.53;;;11.30;99.90;;;;;;7386819;19;20146;-75
2022/04/27 03:51:18;;;;;;;13.37;9.83;;;11.20;99.90;;;;;;7386329;19;20122;-75
2022/04/27 03:53:44;;;;;;;12.10;8.60;;;11.20;99.90;;;;;;7387068;19;20218;-75
2022/04/27 03:56:10;;;;;;;12.10;8.43;;;11.10;99.90;;;;;;7387379;19;20143;-74
2022/04/27 03:58:36;;;;;;;11.07;8.70;;;11.20;99.90;;;;;;7386750;19;20509;-77
2022/04/27 04:01:02;;;;;;;10.83;8.23;;;11.20;99.90;;;;;;7388591;19;20135;-76
2022/04/27 04:03:27;;;;;;;11.57;8.70;;;11.20;99.90;;;;;;7389973;19;20866;-76
2022/04/27 04:05:53;;;;;;;14.97;8.83;;;11.30;99.90;;;;;;7390995;19;20143;-75
2022/04/27 04:08:20;;;;;;;12.80;8.90;;;11.20;99.90;;;;;;7386710;19;20145;-75
2022/04/27 04:10:46;;;;;;;14.07;9.07;;;11.20;99.90;;;;;;7385705;19;20138;-75
2022/04/27 04:13:12;;;;;;;10.77;8.10;;;11.20;99.90;;;;;;7385636;19;20153;-77
2022/04/27 04:15:38;;;;;;;13.90;9.17;;;11.20;99.90;;;;;;7386236;19;20146;-75
2022/04/27 04:18:07;;;;;;;13.40;9.37;;;11.10;99.90;;;;;;7385414;19;20184;-77
2022/04/27 04:20:33;;;;;;;12.00;8.57;;;11.20;99.90;;;;;;7382887;19;20154;-77
2022/04/27 04:22:59;;;;;;;12.50;8.93;;;11.20;99.90;;;;;;7385131;19;20700;-75
2022/04/27 04:30:55;;;;;;;13.40;9.63;;;11.10;99.90;;;;;;7387680;19;20186;-75
2022/04/27 04:33:21;;;;;;;12.37;9.60;;;11.10;99.90;;;;;;7387356;19;20143;-78
2022/04/27 04:35:47;;;;;;;12.33;8.73;;;11.20;99.90;;;;;;7386062;19;20123;-78
2022/04/27 04:38:13;;;;;;;14.33;9.80;;;11.20;99.90;;;;;;7384719;19;20130;-77
2022/04/27 04:40:38;;;;;;;15.97;9.07;;;11.20;99.90;;;;;;7387331;19;20123;-74
2022/04/27 04:43:04;;;;;;;16.27;9.67;;;11.30;99.90;;;;;;7382938;19;20694;-77
2022/04/27 04:45:30;;;;;;;12.97;9.20;;;11.20;99.90;;;;;;7386098;19;20152;-78
2022/04/27 04:47:56;;;;;;;14.77;10.30;;;11.20;99.90;;;;;;7386686;19;20626;-76
2022/04/27 04:50:22;;;;;;;12.73;9.67;;;11.30;99.90;;;;;;7387417;19;20130;-78
2022/04/27 04:52:48;;;;;;;13.23;10.00;;;11.40;99.90;;;;;;7385435;19;20138;-75
2022/04/27 04:55:14;;;;;;;14.40;9.10;;;11.30;99.90;;;;;;7385531;19;20162;-77
2022/04/27 04:57:39;;;;;;;13.70;9.83;;;11.30;99.90;;;;;;7384899;19;20147;-78
2022/04/27 05:00:07;;;;;;;15.17;10.43;;;11.20;99.90;;;;;;7384434;19;20134;-75
2022/04/27 05:02:33;;;;;;;13.30;10.17;;;11.20;99.90;;;;;;7383480;19;20146;-78
2022/04/27 05:05:02;;;;;;;16.03;10.70;;;11.30;99.90;;;;;;7388982;19;20157;-76
2022/04/27 05:07:30;;;;;;;15.90;10.93;;;11.40;99.90;;;;;;7387561;19;20127;-76
2022/04/27 05:09:56;;;;;;;15.90;11.43;;;11.30;99.90;;;;;;7387425;19;20139;-77
2022/04/27 05:12:23;;;;;;;15.77;10.57;;;11.30;99.90;;;;;;7386024;19;20133;-77
2022/04/27 05:14:49;;;;;;;13.80;10.10;;;11.40;99.90;;;;;;7384892;19;20153;-76
2022/04/27 05:17:15;;;;;;;16.03;10.47;;;11.40;99.90;;;;;;7385179;19;20127;-76
2022/04/27 05:19:41;;;;;;;16.20;10.50;;;11.40;99.90;;;;;;7383453;19;20178;-77
2022/04/27 05:22:07;;;;;;;14.93;10.57;;;11.40;99.90;;;;;;7383206;19;20555;-79
2022/04/27 05:24:32;;;;;;;15.13;10.10;;;11.20;99.90;;;;;;7384090;19;20147;-77
2022/04/27 05:26:58;;;;;;;15.33;11.10;;;11.40;99.90;;;;;;7386650;19;20191;-75
2022/04/27 05:32:10;;;;;;;14.63;10.40;;;11.40;99.90;;;;;;7396484;19;20135;-77
2022/04/27 05:34:36;;;;;;;15.40;10.70;;;11.40;99.90;;;;;;7396689;19;20149;-74
2022/04/27 05:37:03;;;;;;;14.10;10.43;;;11.50;99.90;;;;;;7391413;19;20126;-73
2022/04/27 05:39:29;;;;;;;14.37;10.10;;;11.20;99.90;;;;;;7392409;19;20166;-76
2022/04/27 05:41:55;;;;;;;14.87;10.33;;;11.30;99.90;;;;;;7389002;19;20975;-78
2022/04/27 05:44:22;;;;;;;15.50;11.13;;;11.40;99.90;;;;;;7393178;19;20647;-79
2022/04/27 05:46:49;;;;;;;13.23;9.63;;;11.60;99.90;;;;;;7392784;19;20135;-79
2022/04/27 05:49:15;;;;;;;16.30;10.63;;;11.50;99.90;;;;;;7394428;19;20135;-74
2022/04/27 05:51:41;;;;;;;18.43;11.60;;;11.50;99.90;;;;;;7398495;19;20134;-78
2022/04/27 05:54:07;;;;;;;15.27;10.70;;;11.60;99.90;;;;;;7396578;19;20162;-76
2022/04/27 05:56:34;;;;;;;15.83;10.83;;;11.60;99.90;;;;;;7393197;19;20130;-75
2022/04/27 05:59:01;;;;;;;16.67;10.77;;;11.50;99.90;;;;;;7395227;19;20143;-76
2022/04/27 06:01:28;;;;;;;15.43;10.40;;;11.60;99.90;;;;;;7391044;19;20454;-74
2022/04/27 06:03:54;;;;;;;14.90;10.53;;;11.60;99.90;;;;;;7390630;19;20134;-76
2022/04/27 06:06:21;;;;;;;15.97;11.20;;;11.50;99.90;;;;;;7392866;19;20130;-74
2022/04/27 06:08:47;;;;;;;15.23;10.87;;;11.60;99.90;;;;;;7392235;19;20499;-74
2022/04/27 06:11:13;;;;;;;16.60;11.43;;;11.60;99.90;;;;;;7391770;19;20162;-74
2022/04/27 06:13:39;;;;;;;14.03;10.27;;;11.60;99.90;;;;;;7389871;19;20146;-74
2022/04/27 06:16:05;;;;;;;15.93;10.83;;;11.70;99.90;;;;;;7391756;19;20598;-74
2022/04/27 06:18:31;;;;;;;15.53;10.83;;;11.70;99.90;;;;;;7388717;19;20155;-75
2022/04/27 06:20:57;;;;;;;16.13;11.20;;;11.70;99.90;;;;;;7387074;19;20174;-75
2022/04/27 06:23:23;;;;;;;16.57;11.67;;;11.70;99.90;;;;;;7388487;19;20139;-75
2022/04/27 06:25:50;;;;;;;15.70;10.77;;;11.60;99.90;;;;;;7389158;19;20146;-73
2022/04/27 06:28:16;;;;;;;16.97;11.17;;;11.70;99.90;;;;;;7390722;19;20131;-73
2022/04/27 06:30:42;;;;;;;14.20;10.27;;;11.60;99.90;;;;;;7393723;19;20146;-74
2022/04/27 06:33:08;;;;;;;15.93;9.80;;;11.60;99.90;;;;;;7387832;19;20160;-75
2022/04/27 06:35:34;;;;;;;15.57;10.67;;;11.70;99.90;;;;;;7388881;19;20206;-74
2022/04/27 06:38:00;;;;;;;16.90;10.83;;;11.70;99.90;;;;;;7388884;19;20150;-76
2022/04/27 06:40:26;;;;;;;16.00;9.73;;;11.70;99.90;;;;;;7388862;19;20140;-75
2022/04/27 06:42:53;;;;;;;17.80;10.80;;;11.70;99.90;;;;;;7384271;19;20208;-74
2022/04/27 06:45:19;;;;;;;15.77;10.63;;;12.00;99.90;;;;;;7392445;19;20137;-75
2022/04/27 06:47:45;;;;;;;17.60;10.37;;;11.90;99.90;;;;;;7389596;19;20222;-76
2022/04/27 06:50:13;;;;;;;13.27;9.80;;;11.80;99.90;;;;;;7388721;19;20130;-75
2022/04/27 06:52:43;;;;;;;15.30;11.10;;;11.80;99.90;;;;;;7392208;19;20150;-73
2022/04/27 06:55:10;;;;;;;14.00;9.47;;;11.90;99.90;;;;;;7388742;19;20134;-75
2022/04/27 06:57:36;;;;;;;14.07;10.10;;;12.00;99.90;;;;;;7393232;19;20119;-71
2022/04/27 07:00:04;;;;;;;14.10;9.77;;;12.00;99.90;;;;;;7390798;19;20139;-75
2022/04/27 07:02:32;;;;;;;12.70;9.57;;;12.00;99.90;;;;;;7387735;19;20138;-72
2022/04/27 07:05:01;;;;;;;14.40;8.73;;;12.00;99.90;;;;;;7390387;19;20585;-78
2022/04/27 07:07:30;;;;;;;11.57;8.50;;;12.00;99.90;;;;;;7389845;19;20219;-77
2022/04/27 07:09:56;;;;;;;12.37;9.10;;;12.00;99.90;;;;;;7391351;19;20155;-71
2022/04/27 07:12:23;;;;;;;12.47;8.30;;;12.00;99.90;;;;;;7390608;19;20158;-72
2022/04/27 07:14:51;;;;;;;10.70;8.13;;;12.00;99.90;;;;;;7393299;19;20496;-73
2022/04/27 07:17:19;;;;;;;11.43;7.90;;;11.90;99.90;;;;;;7393074;19;20138;-72
2022/04/27 07:19:45;;;;;;;9.73;7.63;;;11.80;99.90;;;;;;7391455;19;20150;-75
2022/04/27 07:22:12;;;;;;;8.93;6.67;;;11.90;99.90;;;;;;7388743;19;20153;-76
2022/04/27 07:24:38;;;;;;;10.67;7.13;;;12.00;99.90;;;;;;7391242;19;20170;-74
2022/04/27 07:27:05;;;;;;;11.43;7.60;;;12.00;99.90;;;;;;7390527;19;20135;-76
2022/04/27 07:29:31;;;;;;;11.03;7.10;;;12.10;99.90;;;;;;7390847;19;20205;-74
2022/04/27 07:31:59;;;;;;;8.60;6.40;;;12.10;99.90;;;;;;7390746;19;20137;-74
2022/04/27 07:34:25;;;;;;;8.10;5.90;;;12.20;99.90;;;;;;7391619;19;20131;-73
2022/04/27 07:36:51;;;;;;;8.07;5.67;;;12.10;99.90;;;;;;7390965;19;20141;-73
2022/04/27 07:39:17;;;;;;;10.20;7.40;;;12.10;99.90;;;;;;7393623;19;20135;-77
2022/04/27 07:41:45;;;;;;;8.43;6.50;;;12.20;99.90;;;;;;7388190;19;20143;-75
2022/04/27 07:44:14;;;;;;;7.77;6.17;;;12.40;99.90;;;;;;7386921;19;20654;-75
2022/04/27 07:46:40;;;;;;;10.30;6.43;;;12.70;99.90;;;;;;7388070;19;20167;-78
2022/04/27 07:49:05;;;;;;;8.73;6.33;;;12.80;99.90;;;;;;7391152;19;20130;-76
2022/04/27 07:51:31;;;;;;;9.07;6.97;;;12.70;99.90;;;;;;7391277;19;20145;-78
2022/04/27 07:53:57;;;;;;;11.93;6.90;;;12.60;99.90;;;;;;7400030;19;20137;-78
2022/04/27 07:56:23;;;;;;;10.27;6.73;;;12.50;99.90;;;;;;7391382;19;20145;-76
2022/04/27 07:58:48;;;;;;;8.77;6.43;;;12.60;99.90;;;;;;7390208;19;20134;-75
2022/04/27 08:01:14;;;;;;;9.20;6.90;;;12.50;99.90;;;;;;7390345;19;20153;-73
2022/04/27 08:03:40;;;;;;;9.37;6.20;;;12.50;99.90;;;;;;7389868;19;20221;-74
2022/04/27 08:06:06;;;;;;;9.70;7.00;;;12.60;99.90;;;;;;7388378;19;20118;-75
2022/04/27 08:08:33;;;;;;;9.00;6.40;;;12.70;99.90;;;;;;7393843;19;20146;-73
2022/04/27 08:10:59;;;;;;;7.30;5.50;;;12.80;99.90;;;;;;7391808;19;20150;-77
2022/04/27 08:13:24;;;;;;;8.67;6.27;;;12.70;99.90;;;;;;7389374;19;20155;-73
2022/04/27 08:15:50;;;;;;;6.83;5.03;;;12.70;99.90;;;;;;7388605;19;20138;-73
2022/04/27 08:18:16;;;;;;;8.33;5.87;;;12.60;99.90;;;;;;7389314;19;20131;-75
2022/04/27 08:23:30;;;;;;;6.40;5.23;;;12.90;99.90;;;;;;7390167;19;20130;-72
2022/04/27 08:26:02;;;;;;;7.90;5.20;;;13.10;99.90;;;;;;7388448;19;20138;-75
2022/04/27 08:28:29;;;;;;;6.83;5.13;;;13.40;99.90;;;;;;7385077;19;20251;-72
2022/04/27 08:30:55;;;;;;;6.07;4.97;;;13.70;99.90;;;;;;7386978;19;20574;-72
2022/04/27 08:33:21;;;;;;;6.63;5.30;;;14.00;99.90;;;;;;7389220;19;20173;-73
2022/04/27 08:35:48;;;;;;;8.23;5.87;;;14.10;99.90;;;;;;7390574;19;20127;-72
2022/04/27 08:38:15;;;;;;;8.63;5.43;;;14.10;99.90;;;;;;7385694;19;20186;-75
2022/04/27 08:40:45;;;;;;;7.90;5.90;;;14.50;99.90;;;;;;7386526;19;20130;-72
2022/04/27 08:43:12;;;;;;;7.33;5.40;;;14.50;99.90;;;;;;7385280;19;20134;-73
2022/04/27 08:45:43;;;;;;;8.97;6.07;;;14.40;99.90;;;;;;7384691;19;20170;-71
2022/04/27 08:48:10;;;;;;;7.43;5.83;;;14.40;99.90;;;;;;7379415;19;20135;-72
2022/04/27 08:50:37;;;;;;;8.30;6.20;;;14.30;99.90;;;;;;7385372;19;20142;-76
2022/04/27 08:53:03;;;;;;;8.60;5.77;;;14.40;99.90;;;;;;7386507;19;20178;-72
2022/04/27 08:55:29;;;;;;;9.27;6.20;;;14.20;99.90;;;;;;7389411;19;20142;-77
2022/04/27 08:58:12;;;;;;;9.97;6.57;;;14.20;99.90;;;;;;7384663;19;20200;-71
2022/04/27 09:00:39;;;;;;;9.37;6.83;;;14.10;99.90;;;;;;7385502;19;20138;-74
2022/04/27 09:03:28;;;;;;;8.90;6.57;;;13.90;99.90;;;;;;7386633;19;20147;-73
2022/04/27 09:06:04;;;;;;;7.47;5.63;;;13.90;99.90;;;;;;7388153;19;20150;-73
2022/04/27 09:08:43;;;;;;;8.80;6.13;;;13.80;99.90;;;;;;7403368;19;20138;-74
2022/04/27 09:11:23;;;;;;;8.30;6.17;;;13.80;99.90;;;;;;7392160;19;20242;-75
2022/04/27 09:13:55;;;;;;;8.33;5.90;;;13.70;99.90;;;;;;7392015;19;20162;-75
2022/04/27 09:22:05;;;;;;;9.70;6.53;;;13.50;99.90;;;;;;7393097;19;20174;-71
2022/04/27 09:24:51;;;;;;;8.33;5.13;;;13.50;99.90;;;;;;7396935;19;20180;-75
2022/04/27 09:27:22;;;;;;;6.47;5.20;;;13.70;99.90;;;;;;7393059;19;20177;-76
2022/04/27 09:30:07;;;;;;;6.17;4.70;;;13.80;99.90;;;;;;7394246;19;20146;-72
2022/04/27 09:32:34;;;;;;;5.77;4.50;;;13.90;99.90;;;;;;7396374;19;20613;-72
2022/04/27 09:35:02;;;;;;;6.57;3.87;;;13.90;99.90;;;;;;7394056;19;20123;-72
2022/04/27 09:37:30;;;;;;;4.80;3.77;;;13.80;99.90;;;;;;7393494;19;20163;-76
2022/04/27 09:40:02;;;;;;;6.57;4.43;;;13.90;99.90;;;;;;7395785;19;20138;-73
2022/04/27 09:42:37;;;;;;;6.57;4.77;;;13.90;99.90;;;;;;7388794;19;20184;-75
2022/04/27 09:45:23;;;;;;;6.23;4.13;;;14.10;99.90;;;;;;7391416;19;20200;-75
2022/04/27 09:48:04;;;;;;;5.33;4.23;;;14.10;99.90;;;;;;7389550;19;20154;-75
2022/04/27 09:50:55;;;;;;;4.50;3.40;;;14.20;99.90;;;;;;7391102;19;20131;-71
2022/04/27 09:53:21;;;;;;;4.67;3.00;;;14.20;99.90;;;;;;7390985;19;20130;-72
2022/04/27 09:55:54;;;;;;;4.40;3.00;;;14.30;99.90;;;;;;7394274;19;20997;-74
2022/04/27 09:58:25;;;;;;;3.80;2.80;;;14.20;99.90;;;;;;7392601;19;20602;-72
2022/04/27 10:00:56;;;;;;;3.30;2.70;;;14.00;99.90;;;;;;7394823;19;20607;-76
2022/04/27 10:03:25;;;;;;;3.87;3.10;;;14.10;99.90;;;;;;7393125;19;20135;-73
2022/04/27 10:05:51;;;;;;;3.50;3.00;;;14.20;99.90;;;;;;7395851;19;21086;-73
2022/04/27 10:08:19;;;;;;;3.93;2.87;;;14.50;99.90;;;;;;7388635;19;20472;-75
2022/04/27 10:10:47;;;;;;;4.20;3.47;;;14.60;99.90;;;;;;7390757;19;20142;-72
2022/04/27 10:13:15;;;;;;;2.93;2.63;;;14.70;99.90;;;;;;7387834;19;20173;-72
2022/04/27 10:15:46;;;;;;;5.70;3.10;;;14.60;99.90;;;;;;7391335;19;20640;-77
2022/04/27 10:18:15;;;;;;;3.33;2.90;;;14.10;99.90;;;;;;7386854;19;20143;-76
2022/04/27 10:20:41;;;;;;;3.17;2.40;;;14.20;99.90;;;;;;7386745;19;20161;-73
2022/04/27 10:23:27;;;;;;;2.23;1.87;;;14.50;99.90;;;;;;7391886;19;20130;-77
2022/04/27 10:26:28;;;;;;;3.17;2.30;;;14.60;99.90;;;;;;7388842;19;20134;-73
2022/04/27 10:29:05;;;;;;;2.83;2.50;;;14.70;99.90;;;;;;7386819;19;20154;-75
2022/04/27 10:31:44;;;;;;;2.80;2.20;;;14.70;99.90;;;;;;7387502;19;20158;-72
2022/04/27 10:34:20;;;;;;;2.67;2.07;;;14.60;99.90;;;;;;7392028;19;20138;-72
2022/04/27 10:37:05;;;;;;;3.13;2.27;;;14.60;99.90;;;;;;7389844;19;20488;-75
2022/04/27 10:39:32;;;;;;;3.40;1.70;;;14.70;99.90;;;;;;7387954;19;20157;-78
2022/04/27 10:42:04;;;;;;;2.00;1.77;;;14.70;99.90;;;;;;7388051;19;20481;-76
2022/04/27 10:44:50;;;;;;;3.93;2.10;;;14.70;99.90;;;;;;7394320;19;20134;-76
2022/04/27 10:47:20;;;;;;;2.40;2.03;;;14.80;99.90;;;;;;7387313;19;20150;-73
2022/04/27 10:50:13;;;;;;;2.40;2.13;;;14.60;99.90;;;;;;7387678;19;20130;-77
2022/04/27 10:52:55;;;;;;;2.50;2.27;;;14.40;99.90;;;;;;7387945;19;20150;-77
2022/04/27 10:55:40;;;;;;;2.50;2.10;;;14.50;99.90;;;;;;7390000;19;20876;-76
2022/04/27 10:58:34;;;;;;;2.63;2.30;;;14.70;99.90;;;;;;7386822;19;20446;-75
2022/04/27 11:01:02;;;;;;;2.28;1.85;;;14.70;99.90;;;;;;7394248;19;20158;-75
2022/04/27 11:03:36;;;;;;;2.37;2.13;;;14.90;99.90;;;;;;7389331;19;20130;-75
2022/04/27 11:06:12;;;;;;;3.40;2.20;;;15.10;99.90;;;;;;7392672;19;20146;-72
2022/04/27 11:08:52;;;;;;;2.47;2.00;;;15.00;99.90;;;;;;7388206;19;20225;-75
2022/04/27 11:11:19;;;;;;;2.13;1.93;;;15.10;99.90;;;;;;7387007;19;20143;-76
2022/04/27 11:13:46;;;;;;;2.88;2.42;;;15.10;99.90;;;;;;7388031;19;20597;-74
2022/04/27 11:16:13;;;;;;;6.40;2.17;;;15.10;99.90;;;;;;7387535;19;20481;-75
2022/04/27 11:18:51;;;;;;;2.50;2.30;;;15.20;99.90;;;;;;7389420;19;20147;-73
2022/04/27 11:21:22;;;;;;;2.78;2.47;;;15.10;99.90;;;;;;7391485;19;20146;-74
2022/04/27 11:23:48;;;;;;;2.87;2.33;;;15.20;99.90;;;;;;7388270;19;20210;-73
2022/04/27 11:26:14;;;;;;;3.77;2.43;;;15.20;99.90;;;;;;7388168;19;20475;-71
2022/04/27 11:28:42;;;;;;;3.58;2.88;;;15.20;99.90;;;;;;7387005;19;20387;-75
2022/04/27 11:31:09;;;;;;;2.58;2.38;;;15.20;99.90;;;;;;7387380;19;20485;-75
2022/04/27 11:33:40;;;;;;;2.97;2.40;;;15.30;99.90;;;;;;7388158;19;20975;-72
2022/04/27 11:36:24;;;;;;;2.80;2.50;;;15.40;99.90;;;;;;7390484;19;20327;-75
2022/04/27 11:38:51;;;;;;;2.88;2.55;;;15.50;99.90;;;;;;7385064;19;20145;-75
2022/04/27 11:41:20;;;;;;;3.40;2.75;;;15.70;99.90;;;;;;7391520;19;20210;-74
2022/04/27 11:43:50;;;;;;;2.67;2.17;;;15.60;99.90;;;;;;7389464;19;20131;-72
2022/04/27 11:46:17;;;;;;;4.13;2.50;;;15.60;99.90;;;;;;7385477;19;20174;-71
2022/04/27 11:48:47;;;;;;;2.80;2.50;;;15.70;99.90;;;;;;7388153;19;20479;-71
2022/04/27 11:51:13;;;;;;;3.33;2.60;;;15.80;99.90;;;;;;7389206;19;20538;-71
2022/04/27 11:53:49;;;;;;;2.80;2.50;;;15.90;99.90;;;;;;7391570;19;20142;-71
2022/04/27 11:56:16;;;;;;;3.50;2.50;;;16.00;99.90;;;;;;7390381;19;20137;-72
2022/04/27 11:58:45;;;;;;;2.97;2.67;;;15.70;99.90;;;;;;7387950;19;20402;-72
2022/04/27 12:01:18;;;;;;;3.15;2.65;;;15.80;99.90;;;;;;7387578;19;20214;-71
2022/04/27 12:03:44;;;;;;;3.63;3.15;;;16.00;99.90;;;;;;7388531;19;20482;-76
2022/04/27 12:06:20;;;;;;;2.63;2.42;;;15.90;99.90;;;;;;7389058;19;20161;-71
2022/04/27 12:08:46;;;;;;;3.03;2.72;;;15.80;99.90;;;;;;7385189;19;20146;-76
2022/04/27 12:11:22;;;;;;;2.25;2.05;;;15.80;99.90;;;;;;7385514;19;20170;-71
2022/04/27 12:13:49;;;;;;;2.50;2.15;;;15.80;99.90;;;;;;7386745;19;20134;-75
2022/04/27 12:16:15;;;;;;;2.30;2.10;;;15.70;99.90;;;;;;7384127;19;20146;-72
2022/04/27 12:18:51;;;;;;;2.65;2.28;;;15.70;99.90;;;;;;7385274;19;20915;-76
2022/04/27 12:21:24;;;;;;;5.03;2.45;;;15.60;99.90;;;;;;7387315;19;20246;-77
2022/04/27 12:23:51;;;;;;;2.65;2.28;;;15.60;99.90;;;;;;7389671;19;20126;-72
2022/04/27 12:26:18;;;;;;;2.92;2.20;;;15.60;99.90;;;;;;7385140;19;20801;-73
2022/04/27 12:28:46;;;;;;;2.30;2.10;;;15.60;99.90;;;;;;7384584;19;20168;-72
2022/04/27 12:31:16;;;;;;;2.85;2.50;;;15.60;99.90;;;;;;7393124;19;20366;-72
2022/04/27 12:33:44;;;;;;;2.35;2.15;;;15.60;99.90;;;;;;7385500;19;20134;-73
2022/04/27 12:39:04;;;;;;;2.60;2.40;;;15.80;99.90;;;;;;7386612;19;20126;-71
2022/04/27 12:41:33;;;;;;;3.25;2.35;;;15.50;99.90;;;;;;7379572;19;20219;-73
2022/04/27 12:44:03;;;;;;;2.55;2.28;;;15.50;99.90;;;;;;7387167;19;20174;-73
2022/04/27 12:46:29;;;;;;;2.15;1.95;;;15.60;99.90;;;;;;7383614;19;20139;-75
2022/04/27 12:49:08;;;;;;;2.47;2.20;;;15.50;99.90;;;;;;7385581;19;20846;-75
2022/04/27 12:51:35;;;;;;;2.10;1.90;;;15.60;99.90;;;;;;7387790;19;20146;-75
2022/04/27 12:54:04;;;;;;;2.45;2.20;;;15.50;99.90;;;;;;7385221;19;20151;-75
2022/04/27 12:56:35;;;;;;;3.05;2.58;;;15.50;99.90;;;;;;7385600;19;20447;-75
2022/04/27 12:59:14;;;;;;;4.67;2.60;;;15.40;99.90;;;;;;7385241;19;20606;-76
2022/04/27 13:01:40;;;;;;;3.00;2.28;;;15.40;99.90;;;;;;7387479;19;20130;-78
2022/04/27 13:04:06;;;;;;;3.67;2.43;;;15.30;99.90;;;;;;7389844;19;20127;-73
2022/04/27 13:06:32;;;;;;;4.27;3.00;;;15.20;99.90;;;;;;7383649;19;20141;-71
2022/04/27 13:11:57;;;;;;;2.88;2.45;;;15.20;99.90;;;;;;7388246;19;20149;-72